sensor_id;sensor_type;location;lat;lon;timestamp;temperature;humidity
15386;DHT22;7791;47.246;9.648;2023-05-07T00:00:11;13.50;99.90
15386;DHT22;7791;47.246;9.648;2023-05-07T00:02:37;13.50;99.90
15386;DHT22;7791;47.246;9.648;2023-05-07T00:05:03;13.40;99.90
15386;DHT22;7791;47.246;9.648;2023-05-07T00:07:29;13.20;99.90
15386;DHT22;7791;47.246;9.648;2023-05-07T00:09:55;13.10;99.90
15386;DHT22;7791;47.246;9.648;2023-05-07T00:12:21;13.10;99.90
15386;DHT22;7791;47.246;9.648;2023-05-07T00:14:48;13.00;99.90
15386;DHT22;7791;47.246;9.648;2023-05-07T00:17:13;13.00;99.90
15386;DHT22;7791;47.246;9.648;2023-05-07T00:19:39;13.00;99.90
15386;DHT22;7791;47.246;9.648;2023-05-07T00:22:05;12.90;99.90
15386;DHT22;7791;47.246;9.648;2023-05-07T00:24:31;12.80;99.90
15386;DHT22;7791;47.246;9.648;2023-05-07T00:26:57;12.70;99.90
15386;DHT22;7791;47.246;9.648;2023-05-07T00:29:23;12.50;99.90
15386;DHT22;7791;47.246;9.648;2023-05-07T00:31:50;12.40;99.90
15386;DHT22;7791;47.246;9.648;2023-05-07T00:34:16;12.40;99.90
15386;DHT22;7791;47.246;9.648;2023-05-07T00:36:42;12.50;99.90
15386;DHT22;7791;47.246;9.648;2023-05-07T00:39:08;12.50;99.90
15386;DHT22;7791;47.246;9.648;2023-05-07T00:41:33;12.50;99.90
15386;DHT22;7791;47.246;9.648;2023-05-07T00:43:59;12.40;99.90
15386;DHT22;7791;47.246;9.648;2023-05-07T00:46:25;12.40;99.90
15386;DHT22;7791;47.246;9.648;2023-05-07T00:48:52;12.30;99.90
15386;DHT22;7791;47.246;9.648;2023-05-07T00:51:18;12.30;99.90
15386;DHT22;7791;47.246;9.648;2023-05-07T00:53:45;12.40;99.90
15386;DHT22;7791;47.246;9.648;2023-05-07T00:56:12;12.50;99.90
15386;DHT22;7791;47.246;9.648;2023-05-07T00:58:38;12.40;99.90
15386;DHT22;7791;47.246;9.648;2023-05-07T01:01:04;12.40;99.90
15386;DHT22;7791;47.246;9.648;2023-05-07T01:03:29;12.30;99.90
15386;DHT22;7791;47.246;9.648;2023-05-07T01:05:57;12.20;99.90
15386;DHT22;7791;47.246;9.648;2023-05-07T01:08:24;12.20;99.90
15386;DHT22;7791;47.246;9.648;2023-05-07T01:10:50;12.20;99.90
15386;DHT22;7791;47.246;9.648;2023-05-07T01:13:17;12.20;99.90
15386;DHT22;7791;47.246;9.648;2023-05-07T01:15:43;12.20;99.90
15386;DHT22;7791;47.246;9.648;2023-05-07T01:18:09;12.20;99.90
15386;DHT22;7791;47.246;9.648;2023-05-07T01:20:35;12.20;99.90
15386;DHT22;7791;47.246;9.648;2023-05-07T01:23:03;12.30;99.90
15386;DHT22;7791;47.246;9.648;2023-05-07T01:25:30;12.20;99.90
15386;DHT22;7791;47.246;9.648;2023-05-07T01:27:56;12.20;99.90
15386;DHT22;7791;47.246;9.648;2023-05-07T01:30:22;12.20;99.90
15386;DHT22;7791;47.246;9.648;2023-05-07T01:32:52;12.20;99.90
15386;DHT22;7791;47.246;9.648;2023-05-07T01:35:19;12.30;99.90
15386;DHT22;7791;47.246;9.648;2023-05-07T01:37:46;12.40;99.90
15386;DHT22;7791;47.246;9.648;2023-05-07T01:40:14;12.50;99.90
15386;DHT22;7791;47.246;9.648;2023-05-07T01:42:41;12.60;99.90
15386;DHT22;7791;47.246;9.648;2023-05-07T01:45:08;12.70;99.90
15386;DHT22;7791;47.246;9.648;2023-05-07T01:47:33;12.80;99.90
15386;DHT22;7791;47.246;9.648;2023-05-07T01:50:00;12.80;99.90
15386;DHT22;7791;47.246;9.648;2023-05-07T01:52:27;12.80;99.90
15386;DHT22;7791;47.246;9.648;2023-05-07T01:54:53;12.80;99.90
15386;DHT22;7791;47.246;9.648;2023-05-07T01:57:20;12.80;99.90
15386;DHT22;7791;47.246;9.648;2023-05-07T01:59:46;12.70;99.90
15386;DHT22;7791;47.246;9.648;2023-05-07T02:02:11;12.60;99.90
15386;DHT22;7791;47.246;9.648;2023-05-07T02:04:37;12.50;99.90
15386;DHT22;7791;47.246;9.648;2023-05-07T02:07:03;12.50;99.90
15386;DHT22;7791;47.246;9.648;2023-05-07T02:09:28;12.40;99.90
15386;DHT22;7791;47.246;9.648;2023-05-07T02:11:54;12.30;99.90
15386;DHT22;7791;47.246;9.648;2023-05-07T02:14:21;12.30;99.90
15386;DHT22;7791;47.246;9.648;2023-05-07T02:16:47;12.30;99.90
15386;DHT22;7791;47.246;9.648;2023-05-07T02:19:13;12.30;99.90
15386;DHT22;7791;47.246;9.648;2023-05-07T02:21:38;12.30;99.90
15386;DHT22;7791;47.246;9.648;2023-05-07T02:24:05;12.20;99.90
15386;DHT22;7791;47.246;9.648;2023-05-07T02:26:30;12.20;99.90
15386;DHT22;7791;47.246;9.648;2023-05-07T02:28:56;12.30;99.90
15386;DHT22;7791;47.246;9.648;2023-05-07T02:31:23;12.20;99.90
15386;DHT22;7791;47.246;9.648;2023-05-07T02:33:49;12.20;99.90
15386;DHT22;7791;47.246;9.648;2023-05-07T02:36:15;12.20;99.90
15386;DHT22;7791;47.246;9.648;2023-05-07T02:38:40;12.30;99.90
15386;DHT22;7791;47.246;9.648;2023-05-07T02:41:06;12.30;99.90
15386;DHT22;7791;47.246;9.648;2023-05-07T02:43:32;12.30;99.90
15386;DHT22;7791;47.246;9.648;2023-05-07T02:46:02;12.30;99.90
15386;DHT22;7791;47.246;9.648;2023-05-07T02:48:29;12.30;99.90
15386;DHT22;7791;47.246;9.648;2023-05-07T02:50:55;12.30;99.90
15386;DHT22;7791;47.246;9.648;2023-05-07T02:53:20;12.20;99.90
15386;DHT22;7791;47.246;9.648;2023-05-07T02:55:46;12.10;99.90
15386;DHT22;7791;47.246;9.648;2023-05-07T02:58:12;12.00;99.90
15386;DHT22;7791;47.246;9.648;2023-05-07T03:00:38;11.90;99.90
15386;DHT22;7791;47.246;9.648;2023-05-07T03:03:03;11.90;99.90
15386;DHT22;7791;47.246;9.648;2023-05-07T03:05:30;11.90;99.90
15386;DHT22;7791;47.246;9.648;2023-05-07T03:07:56;11.90;99.90
15386;DHT22;7791;47.246;9.648;2023-05-07T03:10:22;11.80;99.90
15386;DHT22;7791;47.246;9.648;2023-05-07T03:12:48;11.80;99.90
15386;DHT22;7791;47.246;9.648;2023-05-07T03:15:13;11.70;99.90
15386;DHT22;7791;47.246;9.648;2023-05-07T03:17:39;11.60;99.90
15386;DHT22;7791;47.246;9.648;2023-05-07T03:20:06;11.40;99.90
15386;DHT22;7791;47.246;9.648;2023-05-07T03:22:33;11.40;99.90
15386;DHT22;7791;47.246;9.648;2023-05-07T03:24:59;11.40;99.90
15386;DHT22;7791;47.246;9.648;2023-05-07T03:27:25;11.40;99.90
15386;DHT22;7791;47.246;9.648;2023-05-07T03:29:50;11.40;99.90
15386;DHT22;7791;47.246;9.648;2023-05-07T03:32:16;11.50;99.90
15386;DHT22;7791;47.246;9.648;2023-05-07T03:34:42;11.60;99.90
15386;DHT22;7791;47.246;9.648;2023-05-07T03:37:07;11.40;99.90
15386;DHT22;7791;47.246;9.648;2023-05-07T03:39:35;11.30;99.90
15386;DHT22;7791;47.246;9.648;2023-05-07T03:42:00;11.20;99.90
15386;DHT22;7791;47.246;9.648;2023-05-07T03:44:26;11.10;99.90
15386;DHT22;7791;47.246;9.648;2023-05-07T03:46:52;11.10;99.90
15386;DHT22;7791;47.246;9.648;2023-05-07T03:49:17;11.10;99.90
15386;DHT22;7791;47.246;9.648;2023-05-07T03:51:43;11.10;99.90
15386;DHT22;7791;47.246;9.648;2023-05-07T03:54:09;11.10;99.90
15386;DHT22;7791;47.246;9.648;2023-05-07T03:56:36;11.10;99.90
15386;DHT22;7791;47.246;9.648;2023-05-07T03:59:02;11.10;99.90
15386;DHT22;7791;47.246;9.648;2023-05-07T04:01:28;11.10;99.90
15386;DHT22;7791;47.246;9.648;2023-05-07T04:03:53;10.90;99.90
15386;DHT22;7791;47.246;9.648;2023-05-07T04:06:19;10.90;99.90
15386;DHT22;7791;47.246;9.648;2023-05-07T04:08:45;10.80;99.90
15386;DHT22;7791;47.246;9.648;2023-05-07T04:11:11;10.70;99.90
15386;DHT22;7791;47.246;9.648;2023-05-07T04:13:38;10.70;99.90
15386;DHT22;7791;47.246;9.648;2023-05-07T04:16:06;10.70;99.90
15386;DHT22;7791;47.246;9.648;2023-05-07T04:18:32;10.60;99.90
15386;DHT22;7791;47.246;9.648;2023-05-07T04:20:57;10.70;99.90
15386;DHT22;7791;47.246;9.648;2023-05-07T04:23:23;10.70;99.90
15386;DHT22;7791;47.246;9.648;2023-05-07T04:25:49;10.80;99.90
15386;DHT22;7791;47.246;9.648;2023-05-07T04:28:15;10.80;99.90
15386;DHT22;7791;47.246;9.648;2023-05-07T04:30:42;10.80;99.90
15386;DHT22;7791;47.246;9.648;2023-05-07T04:33:08;10.90;99.90
15386;DHT22;7791;47.246;9.648;2023-05-07T04:35:34;10.90;99.90
15386;DHT22;7791;47.246;9.648;2023-05-07T04:38:00;11.00;99.90
15386;DHT22;7791;47.246;9.648;2023-05-07T04:40:26;11.00;99.90
15386;DHT22;7791;47.246;9.648;2023-05-07T04:42:51;11.10;99.90
15386;DHT22;7791;47.246;9.648;2023-05-07T04:45:17;11.10;99.90
15386;DHT22;7791;47.246;9.648;2023-05-07T04:47:44;11.20;99.90
15386;DHT22;7791;47.246;9.648;2023-05-07T04:50:10;11.20;99.90
15386;DHT22;7791;47.246;9.648;2023-05-07T04:52:36;11.30;99.90
15386;DHT22;7791;47.246;9.648;2023-05-07T04:55:02;11.40;99.90
15386;DHT22;7791;47.246;9.648;2023-05-07T04:57:28;11.50;99.90
15386;DHT22;7791;47.246;9.648;2023-05-07T04:59:54;11.50;99.90
15386;DHT22;7791;47.246;9.648;2023-05-07T05:02:19;11.70;99.90
15386;DHT22;7791;47.246;9.648;2023-05-07T05:04:47;11.90;99.90
15386;DHT22;7791;47.246;9.648;2023-05-07T05:07:12;11.90;99.90
15386;DHT22;7791;47.246;9.648;2023-05-07T05:09:38;11.60;99.90
15386;DHT22;7791;47.246;9.648;2023-05-07T05:12:04;11.80;99.90
15386;DHT22;7791;47.246;9.648;2023-05-07T05:14:30;11.90;99.90
15386;DHT22;7791;47.246;9.648;2023-05-07T05:16:56;12.00;99.90
15386;DHT22;7791;47.246;9.648;2023-05-07T05:19:21;12.20;99.90
15386;DHT22;7791;47.246;9.648;2023-05-07T05:21:48;12.40;99.90
15386;DHT22;7791;47.246;9.648;2023-05-07T05:24:14;12.70;99.90
15386;DHT22;7791;47.246;9.648;2023-05-07T05:26:40;13.00;99.90
15386;DHT22;7791;47.246;9.648;2023-05-07T05:29:05;13.20;99.90
15386;DHT22;7791;47.246;9.648;2023-05-07T05:31:31;13.40;99.90
15386;DHT22;7791;47.246;9.648;2023-05-07T05:33:57;13.50;99.90
15386;DHT22;7791;47.246;9.648;2023-05-07T05:36:23;13.70;99.90
15386;DHT22;7791;47.246;9.648;2023-05-07T05:38:50;14.20;99.90
15386;DHT22;7791;47.246;9.648;2023-05-07T05:41:15;14.70;99.90
15386;DHT22;7791;47.246;9.648;2023-05-07T05:43:41;15.20;99.90
15386;DHT22;7791;47.246;9.648;2023-05-07T05:46:07;15.80;99.90
15386;DHT22;7791;47.246;9.648;2023-05-07T05:48:33;16.50;99.90
15386;DHT22;7791;47.246;9.648;2023-05-07T05:51:01;17.20;99.90
15386;DHT22;7791;47.246;9.648;2023-05-07T05:53:27;17.60;99.90
15386;DHT22;7791;47.246;9.648;2023-05-07T05:55:57;17.70;99.90
15386;DHT22;7791;47.246;9.648;2023-05-07T05:58:23;17.80;99.90
15386;DHT22;7791;47.246;9.648;2023-05-07T06:00:49;18.10;99.90
15386;DHT22;7791;47.246;9.648;2023-05-07T06:03:15;18.10;99.90
15386;DHT22;7791;47.246;9.648;2023-05-07T06:05:40;18.00;99.90
15386;DHT22;7791;47.246;9.648;2023-05-07T06:08:06;17.70;99.90
15386;DHT22;7791;47.246;9.648;2023-05-07T06:10:32;17.70;99.90
15386;DHT22;7791;47.246;9.648;2023-05-07T06:12:59;18.20;99.90
15386;DHT22;7791;47.246;9.648;2023-05-07T06:15:25;18.80;99.90
15386;DHT22;7791;47.246;9.648;2023-05-07T06:17:50;19.50;99.90
15386;DHT22;7791;47.246;9.648;2023-05-07T06:20:16;19.60;99.90
15386;DHT22;7791;47.246;9.648;2023-05-07T06:22:42;19.90;99.90
15386;DHT22;7791;47.246;9.648;2023-05-07T06:25:08;20.30;99.90
15386;DHT22;7791;47.246;9.648;2023-05-07T06:27:34;20.70;99.90
15386;DHT22;7791;47.246;9.648;2023-05-07T06:30:01;21.00;99.90
15386;DHT22;7791;47.246;9.648;2023-05-07T06:32:27;21.10;99.90
15386;DHT22;7791;47.246;9.648;2023-05-07T06:34:53;21.20;99.90
15386;DHT22;7791;47.246;9.648;2023-05-07T06:37:19;20.70;99.90
15386;DHT22;7791;47.246;9.648;2023-05-07T06:39:44;20.70;99.90
15386;DHT22;7791;47.246;9.648;2023-05-07T06:42:10;20.70;99.90
15386;DHT22;7791;47.246;9.648;2023-05-07T06:44:36;20.20;99.90
15386;DHT22;7791;47.246;9.648;2023-05-07T06:47:03;19.50;99.90
15386;DHT22;7791;47.246;9.648;2023-05-07T06:49:29;19.20;99.90
15386;DHT22;7791;47.246;9.648;2023-05-07T06:51:54;19.60;99.90
15386;DHT22;7791;47.246;9.648;2023-05-07T06:54:21;19.80;99.90
15386;DHT22;7791;47.246;9.648;2023-05-07T06:56:46;19.90;99.90
15386;DHT22;7791;47.246;9.648;2023-05-07T06:59:24;19.90;99.90
15386;DHT22;7791;47.246;9.648;2023-05-07T07:01:50;20.20;99.90
15386;DHT22;7791;47.246;9.648;2023-05-07T07:04:17;20.20;99.90
15386;DHT22;7791;47.246;9.648;2023-05-07T07:06:43;20.40;99.90
15386;DHT22;7791;47.246;9.648;2023-05-07T07:09:16;20.80;99.90
15386;DHT22;7791;47.246;9.648;2023-05-07T07:11:41;21.60;99.90
15386;DHT22;7791;47.246;9.648;2023-05-07T07:14:07;22.30;99.90
15386;DHT22;7791;47.246;9.648;2023-05-07T07:16:33;23.40;99.90
15386;DHT22;7791;47.246;9.648;2023-05-07T07:18:58;24.30;99.90
15386;DHT22;7791;47.246;9.648;2023-05-07T07:21:26;25.10;98.30
15386;DHT22;7791;47.246;9.648;2023-05-07T07:23:52;25.00;96.80
15386;DHT22;7791;47.246;9.648;2023-05-07T07:26:17;24.60;96.70
15386;DHT22;7791;47.246;9.648;2023-05-07T07:28:43;24.10;96.70
15386;DHT22;7791;47.246;9.648;2023-05-07T07:31:09;23.40;97.40
15386;DHT22;7791;47.246;9.648;2023-05-07T07:33:35;22.10;99.70
15386;DHT22;7791;47.246;9.648;2023-05-07T07:36:00;21.40;99.90
15386;DHT22;7791;47.246;9.648;2023-05-07T07:38:28;21.20;99.90
15386;DHT22;7791;47.246;9.648;2023-05-07T07:40:53;21.50;99.90
15386;DHT22;7791;47.246;9.648;2023-05-07T07:43:19;21.30;99.70
15386;DHT22;7791;47.246;9.648;2023-05-07T07:45:45;20.50;99.90
15386;DHT22;7791;47.246;9.648;2023-05-07T07:48:11;20.30;99.90
15386;DHT22;7791;47.246;9.648;2023-05-07T07:50:36;19.30;99.90
15386;DHT22;7791;47.246;9.648;2023-05-07T07:53:03;19.20;99.90
15386;DHT22;7791;47.246;9.648;2023-05-07T07:55:30;19.00;99.90
15386;DHT22;7791;47.246;9.648;2023-05-07T07:57:56;18.90;99.90
15386;DHT22;7791;47.246;9.648;2023-05-07T08:00:22;18.60;99.90
15386;DHT22;7791;47.246;9.648;2023-05-07T08:02:47;18.40;99.90
15386;DHT22;7791;47.246;9.648;2023-05-07T08:05:13;18.30;99.90
15386;DHT22;7791;47.246;9.648;2023-05-07T08:07:39;18.40;99.90
15386;DHT22;7791;47.246;9.648;2023-05-07T08:10:05;18.50;99.90
15386;DHT22;7791;47.246;9.648;2023-05-07T08:12:32;18.90;99.90
15386;DHT22;7791;47.246;9.648;2023-05-07T08:14:58;19.10;99.90
15386;DHT22;7791;47.246;9.648;2023-05-07T08:17:24;19.40;99.90
15386;DHT22;7791;47.246;9.648;2023-05-07T08:19:50;19.40;99.90
15386;DHT22;7791;47.246;9.648;2023-05-07T08:22:15;19.60;99.90
15386;DHT22;7791;47.246;9.648;2023-05-07T08:24:41;19.70;99.90
15386;DHT22;7791;47.246;9.648;2023-05-07T08:27:07;20.00;99.90
15386;DHT22;7791;47.246;9.648;2023-05-07T08:29:34;19.90;99.90
15386;DHT22;7791;47.246;9.648;2023-05-07T08:32:00;20.10;99.90
15386;DHT22;7791;47.246;9.648;2023-05-07T08:34:25;20.40;99.90
15386;DHT22;7791;47.246;9.648;2023-05-07T08:36:53;20.20;99.90
15386;DHT22;7791;47.246;9.648;2023-05-07T08:39:19;20.30;99.90
15386;DHT22;7791;47.246;9.648;2023-05-07T08:41:45;20.50;99.90
15386;DHT22;7791;47.246;9.648;2023-05-07T08:44:12;20.70;99.90
15386;DHT22;7791;47.246;9.648;2023-05-07T08:46:41;21.30;99.90
15386;DHT22;7791;47.246;9.648;2023-05-07T08:49:07;21.80;99.90
15386;DHT22;7791;47.246;9.648;2023-05-07T08:51:33;22.20;99.90
15386;DHT22;7791;47.246;9.648;2023-05-07T08:53:59;22.60;99.30
15386;DHT22;7791;47.246;9.648;2023-05-07T08:56:26;22.80;98.40
15386;DHT22;7791;47.246;9.648;2023-05-07T08:58:52;22.90;98.10
15386;DHT22;7791;47.246;9.648;2023-05-07T09:01:18;23.20;98.60
15386;DHT22;7791;47.246;9.648;2023-05-07T09:03:49;23.40;97.70
15386;DHT22;7791;47.246;9.648;2023-05-07T09:06:17;23.70;97.90
15386;DHT22;7791;47.246;9.648;2023-05-07T09:08:49;23.60;97.70
15386;DHT22;7791;47.246;9.648;2023-05-07T09:11:15;23.50;98.10
15386;DHT22;7791;47.246;9.648;2023-05-07T09:13:41;23.20;97.60
15386;DHT22;7791;47.246;9.648;2023-05-07T09:16:12;23.30;97.50
15386;DHT22;7791;47.246;9.648;2023-05-07T09:18:48;23.60;97.90
15386;DHT22;7791;47.246;9.648;2023-05-07T09:21:20;23.20;98.90
15386;DHT22;7791;47.246;9.648;2023-05-07T09:23:46;23.00;99.80
15386;DHT22;7791;47.246;9.648;2023-05-07T09:26:14;23.20;99.30
15386;DHT22;7791;47.246;9.648;2023-05-07T09:28:40;23.10;99.20
15386;DHT22;7791;47.246;9.648;2023-05-07T09:31:06;23.40;99.20
15386;DHT22;7791;47.246;9.648;2023-05-07T09:33:32;24.00;98.40
15386;DHT22;7791;47.246;9.648;2023-05-07T09:35:58;24.80;96.70
15386;DHT22;7791;47.246;9.648;2023-05-07T09:38:25;25.40;96.20
15386;DHT22;7791;47.246;9.648;2023-05-07T09:41:02;25.80;95.30
15386;DHT22;7791;47.246;9.648;2023-05-07T09:43:32;26.30;94.90
15386;DHT22;7791;47.246;9.648;2023-05-07T09:45:58;26.00;95.20
15386;DHT22;7791;47.246;9.648;2023-05-07T09:48:25;26.20;94.90
15386;DHT22;7791;47.246;9.648;2023-05-07T09:50:55;26.20;95.20
15386;DHT22;7791;47.246;9.648;2023-05-07T09:53:35;26.40;94.70
15386;DHT22;7791;47.246;9.648;2023-05-07T09:56:03;26.40;94.70
15386;DHT22;7791;47.246;9.648;2023-05-07T09:58:32;26.60;95.10
15386;DHT22;7791;47.246;9.648;2023-05-07T10:01:16;26.80;93.90
15386;DHT22;7791;47.246;9.648;2023-05-07T10:03:44;27.80;92.80
15386;DHT22;7791;47.246;9.648;2023-05-07T10:06:15;28.30;91.30
15386;DHT22;7791;47.246;9.648;2023-05-07T10:08:43;28.60;90.60
15386;DHT22;7791;47.246;9.648;2023-05-07T10:11:12;28.50;89.00
15386;DHT22;7791;47.246;9.648;2023-05-07T10:13:37;28.50;90.90
15386;DHT22;7791;47.246;9.648;2023-05-07T10:16:04;28.40;91.10
15386;DHT22;7791;47.246;9.648;2023-05-07T10:18:30;27.80;91.90
15386;DHT22;7791;47.246;9.648;2023-05-07T10:21:04;27.70;91.80
15386;DHT22;7791;47.246;9.648;2023-05-07T10:23:33;27.40;92.60
15386;DHT22;7791;47.246;9.648;2023-05-07T10:26:00;26.70;93.00
15386;DHT22;7791;47.246;9.648;2023-05-07T10:28:30;25.40;93.60
15386;DHT22;7791;47.246;9.648;2023-05-07T10:31:07;24.50;95.10
15386;DHT22;7791;47.246;9.648;2023-05-07T10:33:34;23.90;96.50
15386;DHT22;7791;47.246;9.648;2023-05-07T10:36:01;23.70;96.20
15386;DHT22;7791;47.246;9.648;2023-05-07T10:38:28;23.50;95.90
15386;DHT22;7791;47.246;9.648;2023-05-07T11:05:23;22.70;99.90
15386;DHT22;7791;47.246;9.648;2023-05-07T11:07:54;22.90;99.60
15386;DHT22;7791;47.246;9.648;2023-05-07T11:10:21;23.00;99.30
15386;DHT22;7791;47.246;9.648;2023-05-07T11:12:54;23.20;98.30
15386;DHT22;7791;47.246;9.648;2023-05-07T11:15:42;23.90;97.60
15386;DHT22;7791;47.246;9.648;2023-05-07T11:20:54;26.30;95.30
15386;DHT22;7791;47.246;9.648;2023-05-07T11:27:02;28.40;92.30
15386;DHT22;7791;47.246;9.648;2023-05-07T11:29:38;29.80;90.30
15386;DHT22;7791;47.246;9.648;2023-05-07T11:37:28;30.90;88.50
15386;DHT22;7791;47.246;9.648;2023-05-07T11:42:30;30.00;81.70
15386;DHT22;7791;47.246;9.648;2023-05-07T11:44:55;30.30;81.20
15386;DHT22;7791;47.246;9.648;2023-05-07T11:47:24;29.40;84.50
15386;DHT22;7791;47.246;9.648;2023-05-07T11:49:51;29.90;83.50
15386;DHT22;7791;47.246;9.648;2023-05-07T11:57:37;28.00;90.80
15386;DHT22;7791;47.246;9.648;2023-05-07T12:20:50;27.30;87.90
15386;DHT22;7791;47.246;9.648;2023-05-07T12:23:34;27.30;90.00
15386;DHT22;7791;47.246;9.648;2023-05-07T12:26:10;27.50;89.30
15386;DHT22;7791;47.246;9.648;2023-05-07T12:28:56;27.20;90.20
15386;DHT22;7791;47.246;9.648;2023-05-07T12:34:18;27.90;88.80
15386;DHT22;7791;47.246;9.648;2023-05-07T12:37:03;28.00;88.40
15386;DHT22;7791;47.246;9.648;2023-05-07T12:51:44;28.50;85.80
15386;DHT22;7791;47.246;9.648;2023-05-07T12:54:28;28.40;84.70
15386;DHT22;7791;47.246;9.648;2023-05-07T13:00:11;28.50;82.50
15386;DHT22;7791;47.246;9.648;2023-05-07T13:02:45;28.80;85.90
15386;DHT22;7791;47.246;9.648;2023-05-07T13:05:49;28.60;83.20
15386;DHT22;7791;47.246;9.648;2023-05-07T13:41:35;27.30;81.80
15386;DHT22;7791;47.246;9.648;2023-05-07T13:44:01;27.60;81.40
15386;DHT22;7791;47.246;9.648;2023-05-07T13:46:26;28.10;82.00
15386;DHT22;7791;47.246;9.648;2023-05-07T13:48:52;28.00;81.80
15386;DHT22;7791;47.246;9.648;2023-05-07T13:51:18;27.40;82.50
15386;DHT22;7791;47.246;9.648;2023-05-07T13:53:44;26.90;81.60
15386;DHT22;7791;47.246;9.648;2023-05-07T13:56:09;26.80;84.80
15386;DHT22;7791;47.246;9.648;2023-05-07T13:58:36;26.90;86.40
15386;DHT22;7791;47.246;9.648;2023-05-07T14:01:02;26.40;83.80
15386;DHT22;7791;47.246;9.648;2023-05-07T14:03:28;26.60;85.00
15386;DHT22;7791;47.246;9.648;2023-05-07T14:05:54;26.90;86.90
15386;DHT22;7791;47.246;9.648;2023-05-07T14:08:19;26.80;86.00
15386;DHT22;7791;47.246;9.648;2023-05-07T14:10:45;26.90;87.50
15386;DHT22;7791;47.246;9.648;2023-05-07T14:13:14;27.00;86.20
15386;DHT22;7791;47.246;9.648;2023-05-07T14:15:41;27.20;89.10
15386;DHT22;7791;47.246;9.648;2023-05-07T14:18:07;27.30;90.00
15386;DHT22;7791;47.246;9.648;2023-05-07T14:20:33;27.30;89.80
15386;DHT22;7791;47.246;9.648;2023-05-07T14:22:59;26.10;90.40
15386;DHT22;7791;47.246;9.648;2023-05-07T14:25:24;25.90;92.00
15386;DHT22;7791;47.246;9.648;2023-05-07T14:27:50;26.00;91.80
15386;DHT22;7791;47.246;9.648;2023-05-07T14:30:16;26.20;91.60
15386;DHT22;7791;47.246;9.648;2023-05-07T14:32:43;26.10;92.70
15386;DHT22;7791;47.246;9.648;2023-05-07T14:35:09;25.90;92.00
15386;DHT22;7791;47.246;9.648;2023-05-07T14:37:34;25.50;92.80
15386;DHT22;7791;47.246;9.648;2023-05-07T14:40:00;24.80;93.30
15386;DHT22;7791;47.246;9.648;2023-05-07T14:42:26;24.50;94.00
15386;DHT22;7791;47.246;9.648;2023-05-07T14:44:52;24.50;94.40
15386;DHT22;7791;47.246;9.648;2023-05-07T14:47:17;24.30;94.30
15386;DHT22;7791;47.246;9.648;2023-05-07T14:49:44;24.50;94.30
15386;DHT22;7791;47.246;9.648;2023-05-07T14:52:10;24.60;94.20
15386;DHT22;7791;47.246;9.648;2023-05-07T14:54:37;23.80;94.50
15386;DHT22;7791;47.246;9.648;2023-05-07T14:57:04;23.20;95.40
15386;DHT22;7791;47.246;9.648;2023-05-07T14:59:30;22.70;96.20
15386;DHT22;7791;47.246;9.648;2023-05-07T15:01:55;22.30;96.90
15386;DHT22;7791;47.246;9.648;2023-05-07T15:04:21;22.00;97.40
15386;DHT22;7791;47.246;9.648;2023-05-07T15:06:48;21.90;97.40
15386;DHT22;7791;47.246;9.648;2023-05-07T15:09:14;21.70;97.40
15386;DHT22;7791;47.246;9.648;2023-05-07T15:11:40;21.50;98.60
15386;DHT22;7791;47.246;9.648;2023-05-07T15:14:05;21.30;98.50
15386;DHT22;7791;47.246;9.648;2023-05-07T15:16:31;21.20;98.90
15386;DHT22;7791;47.246;9.648;2023-05-07T15:18:57;21.20;99.30
15386;DHT22;7791;47.246;9.648;2023-05-07T15:21:23;21.10;99.70
15386;DHT22;7791;47.246;9.648;2023-05-07T15:23:50;21.00;99.70
15386;DHT22;7791;47.246;9.648;2023-05-07T15:26:16;20.90;99.70
15386;DHT22;7791;47.246;9.648;2023-05-07T15:28:41;20.80;99.70
15386;DHT22;7791;47.246;9.648;2023-05-07T15:31:07;20.70;99.90
15386;DHT22;7791;47.246;9.648;2023-05-07T15:33:33;20.70;99.90
15386;DHT22;7791;47.246;9.648;2023-05-07T15:35:59;20.70;99.90
15386;DHT22;7791;47.246;9.648;2023-05-07T15:38:25;20.50;99.90
15386;DHT22;7791;47.246;9.648;2023-05-07T15:40:52;20.50;99.90
15386;DHT22;7791;47.246;9.648;2023-05-07T15:43:18;20.50;99.90
15386;DHT22;7791;47.246;9.648;2023-05-07T15:45:43;20.50;99.90
15386;DHT22;7791;47.246;9.648;2023-05-07T15:48:10;20.40;99.90
15386;DHT22;7791;47.246;9.648;2023-05-07T16:27:30;19.10;99.90
15386;DHT22;7791;47.246;9.648;2023-05-07T16:30:26;19.10;99.90
15386;DHT22;7791;47.246;9.648;2023-05-07T16:57:31;15.00;99.90
15386;DHT22;7791;47.246;9.648;2023-05-07T16:59:57;14.70;99.90
15386;DHT22;7791;47.246;9.648;2023-05-07T17:05:31;14.40;99.90
15386;DHT22;7791;47.246;9.648;2023-05-07T17:08:00;14.40;99.90
15386;DHT22;7791;47.246;9.648;2023-05-07T17:10:42;14.40;99.90
15386;DHT22;7791;47.246;9.648;2023-05-07T17:13:20;14.40;99.90
15386;DHT22;7791;47.246;9.648;2023-05-07T17:15:56;14.40;99.90
15386;DHT22;7791;47.246;9.648;2023-05-07T17:18:33;14.40;99.90
15386;DHT22;7791;47.246;9.648;2023-05-07T17:21:03;14.40;99.90
15386;DHT22;7791;47.246;9.648;2023-05-07T17:23:31;14.30;99.90
15386;DHT22;7791;47.246;9.648;2023-05-07T17:29:04;14.40;99.90
15386;DHT22;7791;47.246;9.648;2023-05-07T17:31:47;14.50;99.90
15386;DHT22;7791;47.246;9.648;2023-05-07T17:34:21;14.60;99.90
15386;DHT22;7791;47.246;9.648;2023-05-07T17:36:57;14.60;99.90
15386;DHT22;7791;47.246;9.648;2023-05-07T17:39:33;14.60;99.90
15386;DHT22;7791;47.246;9.648;2023-05-07T17:42:08;14.70;99.90
15386;DHT22;7791;47.246;9.648;2023-05-07T17:50:42;14.70;99.90
15386;DHT22;7791;47.246;9.648;2023-05-07T17:53:17;14.70;99.90
15386;DHT22;7791;47.246;9.648;2023-05-07T17:55:47;14.70;99.90
15386;DHT22;7791;47.246;9.648;2023-05-07T17:58:16;14.60;99.90
15386;DHT22;7791;47.246;9.648;2023-05-07T18:00:46;14.60;99.90
15386;DHT22;7791;47.246;9.648;2023-05-07T18:03:20;14.60;99.90
15386;DHT22;7791;47.246;9.648;2023-05-07T18:05:56;14.70;99.90
15386;DHT22;7791;47.246;9.648;2023-05-07T18:08:33;14.60;99.90
15386;DHT22;7791;47.246;9.648;2023-05-07T18:11:12;14.60;99.90
15386;DHT22;7791;47.246;9.648;2023-05-07T18:13:38;14.60;99.90
15386;DHT22;7791;47.246;9.648;2023-05-07T18:32:03;14.70;99.90
15386;DHT22;7791;47.246;9.648;2023-05-07T18:34:31;14.60;99.90
15386;DHT22;7791;47.246;9.648;2023-05-07T18:36:58;14.70;99.90
15386;DHT22;7791;47.246;9.648;2023-05-07T18:39:30;14.70;99.90
15386;DHT22;7791;47.246;9.648;2023-05-07T18:42:04;14.80;99.90
15386;DHT22;7791;47.246;9.648;2023-05-07T18:44:37;14.70;99.90
15386;DHT22;7791;47.246;9.648;2023-05-07T18:47:26;14.70;99.90
15386;DHT22;7791;47.246;9.648;2023-05-07T18:55:04;14.60;99.90
15386;DHT22;7791;47.246;9.648;2023-05-07T19:00:18;14.60;99.90
15386;DHT22;7791;47.246;9.648;2023-05-07T19:02:47;14.60;99.90
15386;DHT22;7791;47.246;9.648;2023-05-07T19:05:13;14.60;99.90
15386;DHT22;7791;47.246;9.648;2023-05-07T19:07:39;14.50;99.90
15386;DHT22;7791;47.246;9.648;2023-05-07T19:10:06;14.60;99.90
15386;DHT22;7791;47.246;9.648;2023-05-07T19:12:34;14.60;99.90
15386;DHT22;7791;47.246;9.648;2023-05-07T19:14:59;14.60;99.90
15386;DHT22;7791;47.246;9.648;2023-05-07T19:17:28;14.50;99.90
15386;DHT22;7791;47.246;9.648;2023-05-07T19:19:54;14.50;99.90